チューリッヒ の空港の天気 - METARとTAF

チューリヒ国際空港 ( LSZH / ZRH ) - スイス チューリッヒ
飛行場実況気象(Metar)
観測時間10/20 06:20 CEST (10/20 04:20 UTC)
風向・風速北 2m/s
視程5000m
天気現象もや
全天を覆う雲 雲底高度 180m
気温11℃
湿度94%
気圧1009hPa
METARLSZH 200420Z 36004KT 330V040 5000 BR OVC006 11/10 Q1009 TEMPO 4000 OVC005
過去の天気等 Google飛行場航空写真 Wunderground天気予報

過去48時間のMETAR

飛行場予報(TAF)
発表時間: 10/20 05:57 CEST (10/20 03:57 UTC)
予報対象時間: 20日5時 CEST ~ 21日11時 CEST
風向・風速北北西 2m/s
視程4000m
天気現象もや 周辺で霧
全天の8割程度の雲 雲底高度 210m
20日6時 CEST ~ 20日8時 CEST に 確率 30% で一時的に
視程800m
天気現象部分霧
全天の8割程度の雲 雲底高度 60m
20日11時 CEST ~ 20日14時 CEST に徐々に
視程10km以上
なし
20日14時 CEST ~ 20日19時 CEST に一時的に
風向・風速北東 4m/s
21日3時 CEST から 確率 30% で
視程4000m
天気現象もや
なし
TAF AMD LSZH 200357Z 2003/2109 34004KT 4000 BR VCFG BKN007 TX20/2015Z TN08/2005Z TN10/2105Z
PROB30 TEMPO 2004/2006 0800 PRFG BKN002
BECMG 2009/2012 CAVOK
TEMPO 2012/2017 04007KT
PROB30 2101/2107 4000 BR NSC